To NAV CANADA Home Page Login to a new session Search on AWWS site Feedback and Comments Disclaimer Vers la page française équivalente Tips FAQ What's new on the site To the Forecasts and Observations / NOTAM section To "File a Flight Plan" website Publications and other links Update of the User's profile FIC Telephone Numbers My Weather Data Folder Route Weather Data Regional Weather Data Local Weather Data To the Forecasts and Observations / NOTAM section
Request Generated 10/28/2016 at 00:31:48 UTC . Weather information available at that time is displayed.


HOPE/BC    (show WxCam)

METAR CYHE 280000Z AUTO 26008KT 9SM -RA FEW044 BKN055 OVC066 11/10
A2983 RMK SLP105=
METAR CYHE 272300Z AUTO 24006KT 9SM -RA OVC049 12/11 A2982 RMK
SPECI CYHE 272223Z AUTO 26004KT 220V290 9SM -RA FEW008 OVC042 12/11
A2982 RMK SLP099=
METAR CYHE 272200Z AUTO 26003KT 9SM SCT008 OVC042 12/10 A2982 RMK

CYHE - No TAF is issued for this station

Your time UTC time
Weather data provided by Environment Canada and NAV CANADA